createdAt,value
2022-12-11T00:01:43.933Z,-0.08
2022-12-11T00:05:06.422Z,-0.09
2022-12-11T00:08:27.813Z,-0.09
2022-12-11T00:11:50.913Z,-0.06
2022-12-11T00:15:13.173Z,-0.08
2022-12-11T00:18:34.986Z,-0.12
2022-12-11T00:21:57.538Z,-0.11
2022-12-11T00:25:20.011Z,-0.16
2022-12-11T00:28:43.438Z,-0.14
2022-12-11T00:32:05.307Z,-0.19
2022-12-11T00:35:27.010Z,-0.15
2022-12-11T00:38:49.885Z,-0.24
2022-12-11T00:42:11.818Z,-0.22
2022-12-11T00:45:38.880Z,-0.28
2022-12-11T00:49:00.841Z,-0.25
2022-12-11T00:52:24.731Z,-0.26
2022-12-11T00:55:46.919Z,-0.25
2022-12-11T00:59:09.178Z,-0.27
2022-12-11T01:02:32.230Z,-0.26
2022-12-11T01:05:55.269Z,-0.22
2022-12-11T01:09:34.127Z,-0.23
2022-12-11T01:12:58.740Z,-0.21
2022-12-11T01:16:20.583Z,-0.25
2022-12-11T01:19:43.719Z,-0.30
2022-12-11T01:23:05.492Z,-0.26
2022-12-11T01:26:27.324Z,-0.29
2022-12-11T01:29:49.614Z,-0.37
2022-12-11T01:33:11.707Z,-0.39
2022-12-11T01:36:34.805Z,-0.50
2022-12-11T01:39:56.618Z,-0.39
2022-12-11T01:43:18.540Z,-0.31
2022-12-11T01:46:41.130Z,-0.27
2022-12-11T01:50:03.110Z,-0.31
2022-12-11T01:53:30.377Z,-0.28
2022-12-11T01:56:54.355Z,-0.44
2022-12-11T02:00:17.124Z,-0.34
2022-12-11T02:03:38.788Z,-0.33
2022-12-11T02:07:00.722Z,-0.58
2022-12-11T02:10:29.221Z,-0.50
2022-12-11T02:13:56.553Z,-0.47
2022-12-11T02:17:23.314Z,-0.55
2022-12-11T02:20:52.995Z,-0.49
2022-12-11T02:24:32.156Z,-0.44
2022-12-11T02:28:07.293Z,-0.38
2022-12-11T02:31:33.963Z,-0.31
2022-12-11T02:35:03.964Z,-0.26
2022-12-11T02:38:29.782Z,-0.19
2022-12-11T02:41:52.615Z,-0.15
2022-12-11T02:45:17.687Z,-0.17
2022-12-11T02:48:41.685Z,-0.17
2022-12-11T02:52:07.344Z,-0.22
2022-12-11T02:55:30.492Z,-0.36
2022-12-11T02:58:58.722Z,-0.38
2022-12-11T03:02:22.230Z,-0.34
2022-12-11T03:05:46.186Z,-0.35
2022-12-11T03:09:08.956Z,-0.25
2022-12-11T03:12:33.999Z,-0.25
2022-12-11T03:16:08.534Z,-0.28
2022-12-11T03:19:36.699Z,-0.24
2022-12-11T03:23:05.882Z,-0.32
2022-12-11T03:26:28.066Z,-0.32
2022-12-11T03:29:57.224Z,-0.30
2022-12-11T03:33:25.261Z,-0.59
2022-12-11T03:36:49.962Z,-0.57
2022-12-11T03:40:16.039Z,-0.57
2022-12-11T03:43:39.674Z,-0.66
2022-12-11T03:47:03.898Z,-0.61
2022-12-11T03:50:29.374Z,-0.69
2022-12-11T03:53:54.296Z,-0.64
2022-12-11T03:57:19.134Z,-0.53
2022-12-11T04:00:41.050Z,-0.55
2022-12-11T04:04:03.012Z,-0.70
2022-12-11T04:07:24.994Z,-0.78
2022-12-11T04:10:48.894Z,-0.75
2022-12-11T04:14:30.070Z,-0.82
2022-12-11T04:18:09.098Z,-0.80
2022-12-11T04:21:48.059Z,-0.86
2022-12-11T04:25:10.315Z,-0.88
2022-12-11T04:28:33.492Z,-0.95
2022-12-11T04:31:55.473Z,-0.96
2022-12-11T04:35:17.994Z,-0.86
2022-12-11T04:38:40.187Z,-0.88
2022-12-11T04:42:01.902Z,-0.99
2022-12-11T04:45:25.503Z,-0.89
2022-12-11T04:48:50.199Z,-0.89
2022-12-11T04:52:16.058Z,-0.94
2022-12-11T04:55:37.923Z,-0.91
2022-12-11T04:58:59.276Z,-0.96
2022-12-11T05:02:22.115Z,-1.27
2022-12-11T05:05:50.651Z,-1.35
2022-12-11T05:09:12.838Z,-1.32
2022-12-11T05:12:34.857Z,-1.26
2022-12-11T05:15:57.462Z,-1.18
2022-12-11T05:19:20.627Z,-1.10
2022-12-11T05:22:42.391Z,-1.20
2022-12-11T05:26:06.523Z,-1.12
2022-12-11T05:29:28.482Z,-1.17
2022-12-11T05:32:50.029Z,-1.21
2022-12-11T05:36:17.706Z,-1.15
2022-12-11T05:39:40.082Z,-1.12
2022-12-11T05:43:02.182Z,-1.21
2022-12-11T05:46:25.642Z,-1.15
2022-12-11T05:49:47.809Z,-1.15
2022-12-11T05:53:10.760Z,-1.08
2022-12-11T05:56:35.285Z,-1.06
2022-12-11T05:59:56.710Z,-1.03
2022-12-11T06:03:18.724Z,-0.98
2022-12-11T06:06:41.042Z,-0.96
2022-12-11T06:10:03.940Z,-1.09
2022-12-11T06:13:25.882Z,-1.05
2022-12-11T06:16:47.764Z,-1.14
2022-12-11T06:20:10.370Z,-1.11
2022-12-11T06:23:31.907Z,-1.05
2022-12-11T06:26:54.875Z,-1.10
2022-12-11T06:30:16.932Z,-1.08
2022-12-11T06:33:39.016Z,-1.10
2022-12-11T06:37:01.174Z,-1.17
2022-12-11T06:40:22.946Z,-1.15
2022-12-11T06:43:46.061Z,-1.19
2022-12-11T06:47:07.783Z,-1.23
2022-12-11T06:50:29.731Z,-1.07
2022-12-11T06:53:53.340Z,-1.17
2022-12-11T06:57:15.294Z,-1.25
2022-12-11T07:00:38.895Z,-1.27
2022-12-11T07:04:01.674Z,-1.35
2022-12-11T07:07:23.538Z,-1.42
2022-12-11T07:10:45.142Z,-1.41
2022-12-11T07:14:06.909Z,-1.49
2022-12-11T07:17:31.368Z,-1.56
2022-12-11T07:20:53.327Z,-1.40
2022-12-11T07:24:15.042Z,-1.46
2022-12-11T07:27:36.931Z,-1.34
2022-12-11T07:30:58.910Z,-1.34
2022-12-11T07:34:22.303Z,-1.19
2022-12-11T07:37:45.910Z,-1.18
2022-12-11T07:41:09.528Z,-1.24
2022-12-11T07:44:31.374Z,-1.09
2022-12-11T07:47:53.589Z,-1.14
2022-12-11T07:51:19.312Z,-1.04
2022-12-11T07:54:41.431Z,-0.99
2022-12-11T07:58:03.133Z,-0.94
2022-12-11T08:01:27.218Z,-0.90
2022-12-11T08:04:49.988Z,-0.88
2022-12-11T08:08:12.747Z,-0.85
2022-12-11T08:11:34.750Z,-0.92
2022-12-11T08:14:56.612Z,-0.85
2022-12-11T08:18:18.128Z,-0.81
2022-12-11T08:21:40.390Z,-0.80
2022-12-11T08:25:03.819Z,-0.89
2022-12-11T08:28:27.170Z,-0.85
2022-12-11T08:31:48.787Z,-0.83
2022-12-11T08:35:10.956Z,-0.80
2022-12-11T08:38:32.869Z,-1.03
2022-12-11T08:41:57.152Z,-0.97
2022-12-11T08:45:19.084Z,-0.86
2022-12-11T08:48:43.041Z,-0.96
2022-12-11T08:52:06.102Z,-0.93
2022-12-11T08:55:27.845Z,-0.79
2022-12-11T08:58:51.814Z,-0.80
2022-12-11T09:02:14.073Z,-0.75
2022-12-11T09:05:35.618Z,-0.79
2022-12-11T09:09:00.450Z,-0.79
2022-12-11T09:12:22.351Z,-0.89
2022-12-11T09:15:45.532Z,-0.95
2022-12-11T09:19:09.354Z,-1.06
2022-12-11T09:22:33.362Z,-0.99
2022-12-11T09:25:55.450Z,-0.99
2022-12-11T09:29:17.079Z,-0.92
2022-12-11T09:32:40.779Z,-0.98
2022-12-11T09:36:03.658Z,-0.92
2022-12-11T09:39:25.553Z,-0.91
2022-12-11T09:42:54.254Z,-0.85
2022-12-11T09:46:17.936Z,-0.98
2022-12-11T09:49:45.017Z,-0.95
2022-12-11T09:53:13.728Z,-0.83
2022-12-11T09:56:43.547Z,-0.75
2022-12-11T10:00:15.113Z,-0.71
2022-12-11T10:03:59.553Z,-0.74
2022-12-11T10:07:32.163Z,-0.68
2022-12-11T10:11:02.172Z,-0.68
2022-12-11T10:14:31.988Z,-0.69
2022-12-11T10:18:01.312Z,-0.70
2022-12-11T10:21:27.885Z,-0.61
2022-12-11T10:25:10.667Z,-0.55
2022-12-11T10:28:33.379Z,-0.44
2022-12-11T10:31:58.425Z,-0.38
2022-12-11T10:35:28.958Z,-0.43
2022-12-11T10:38:50.936Z,-0.41
2022-12-11T10:42:19.482Z,-0.37
2022-12-11T10:45:41.161Z,-0.32
2022-12-11T10:49:03.229Z,-0.32
2022-12-11T10:52:27.033Z,-0.33
2022-12-11T10:55:50.307Z,-0.23
2022-12-11T10:59:24.183Z,-0.17
2022-12-11T11:02:46.614Z,-0.12
2022-12-11T11:06:17.245Z,-0.27
2022-12-11T11:09:39.774Z,-0.39
2022-12-11T11:13:03.127Z,-0.49
2022-12-11T11:16:26.939Z,-0.44
2022-12-11T11:19:49.926Z,-0.22
2022-12-11T11:23:16.362Z,-0.26
2022-12-11T11:27:11.809Z,-0.22
2022-12-11T11:30:23.160Z,-0.36
2022-12-11T11:33:56.725Z,-0.44
2022-12-11T11:37:31.413Z,-0.51
2022-12-11T11:41:02.467Z,-0.39
2022-12-11T11:44:32.660Z,-0.27
2022-12-11T11:48:07.737Z,-0.25
2022-12-11T11:51:38.936Z,-0.18
2022-12-11T11:55:10.306Z,-0.06
2022-12-11T11:58:41.094Z,0.02
2022-12-11T12:02:03.527Z,0.05
2022-12-11T12:05:36.215Z,-0.02
2022-12-11T12:09:09.157Z,0.05
2022-12-11T12:12:43.897Z,0.11
2022-12-11T12:16:43.783Z,0.14
2022-12-11T12:20:05.598Z,0.21
2022-12-11T12:23:45.598Z,0.19
2022-12-11T12:27:50.660Z,0.25
2022-12-11T12:31:17.404Z,0.34
2022-12-11T12:34:53.686Z,0.38
2022-12-11T12:38:23.001Z,0.40
2022-12-11T12:41:55.202Z,0.46
2022-12-11T12:45:27.677Z,0.40
2022-12-11T12:48:50.080Z,0.39
2022-12-11T12:52:16.748Z,0.41
2022-12-11T12:55:40.532Z,0.41
2022-12-11T12:59:02.033Z,0.44
2022-12-11T13:02:25.613Z,0.33
2022-12-11T13:05:57.911Z,0.22
2022-12-11T13:09:23.583Z,0.37
2022-12-11T13:12:47.358Z,0.48
2022-12-11T13:16:25.456Z,0.48
2022-12-11T13:19:50.119Z,0.29
2022-12-11T13:23:29.624Z,0.45
2022-12-11T13:26:51.989Z,0.40
2022-12-11T13:30:24.892Z,0.49
2022-12-11T13:33:50.594Z,0.48
2022-12-11T13:37:25.994Z,0.58
2022-12-11T13:40:54.155Z,0.59
2022-12-11T13:44:22.842Z,0.56
2022-12-11T13:47:46.054Z,0.63
2022-12-11T13:51:08.272Z,0.65
2022-12-11T13:54:33.384Z,0.44
2022-12-11T13:57:55.351Z,0.46
2022-12-11T14:01:22.012Z,0.49
2022-12-11T14:04:44.264Z,0.52
2022-12-11T14:08:10.462Z,0.47
2022-12-11T14:11:38.014Z,0.50
2022-12-11T14:15:03.160Z,0.55
2022-12-11T14:18:27.463Z,0.45
2022-12-11T14:22:03.175Z,0.39
2022-12-11T14:25:28.070Z,0.43
2022-12-11T14:28:51.800Z,0.50
2022-12-11T14:32:21.482Z,0.32
2022-12-11T14:35:45.243Z,0.32
2022-12-11T14:39:15.106Z,0.35
2022-12-11T14:42:42.027Z,0.37
2022-12-11T14:46:10.064Z,0.37
2022-12-11T14:49:42.003Z,0.39
2022-12-11T14:53:09.226Z,0.41
2022-12-11T14:56:32.047Z,0.32
2022-12-11T14:59:57.583Z,0.20
2022-12-11T15:03:25.762Z,0.22
2022-12-11T15:06:49.011Z,0.12
2022-12-11T15:10:27.287Z,0.11
2022-12-11T15:13:55.052Z,0.22
2022-12-11T15:17:17.606Z,0.32
2022-12-11T15:20:41.744Z,0.32
2022-12-11T15:24:07.113Z,0.16
2022-12-11T15:27:35.575Z,0.20
2022-12-11T15:30:59.554Z,0.26
2022-12-11T15:34:23.423Z,0.29
2022-12-11T15:37:54.044Z,0.33
2022-12-11T15:41:17.140Z,0.24
2022-12-11T15:44:39.006Z,0.25
2022-12-11T15:48:00.948Z,0.32
2022-12-11T15:51:22.949Z,0.34
2022-12-11T15:54:46.414Z,0.32
2022-12-11T15:58:14.808Z,0.16
2022-12-11T16:01:37.189Z,0.18
2022-12-11T16:04:59.148Z,0.18
2022-12-11T16:08:23.201Z,0.18
2022-12-11T16:11:46.250Z,0.26
2022-12-11T16:15:09.319Z,0.27
2022-12-11T16:18:31.714Z,0.19
2022-12-11T16:21:53.869Z,0.26
2022-12-11T16:25:16.063Z,0.28
2022-12-11T16:28:39.287Z,0.18
2022-12-11T16:32:00.904Z,-0.08
2022-12-11T16:35:23.579Z,0.01
2022-12-11T16:38:52.860Z,-0.07
2022-12-11T16:42:14.968Z,0.04
2022-12-11T16:45:39.185Z,-0.05
2022-12-11T16:49:00.757Z,-0.06
2022-12-11T16:52:22.545Z,-0.01
2022-12-11T16:55:44.258Z,0.07
2022-12-11T16:59:06.675Z,0.17
2022-12-11T17:02:29.556Z,0.13
2022-12-11T17:05:51.058Z,0.21
2022-12-11T17:09:12.967Z,0.16
2022-12-11T17:12:34.946Z,0.09
2022-12-11T17:15:56.904Z,-0.11
2022-12-11T17:19:24.263Z,-0.22
2022-12-11T17:22:46.054Z,-0.11
2022-12-11T17:26:09.091Z,-0.11
2022-12-11T17:29:30.633Z,-0.11
2022-12-11T17:32:52.520Z,-0.01
2022-12-11T17:36:18.261Z,0.04
2022-12-11T17:39:39.926Z,-0.02
2022-12-11T17:43:06.268Z,0.00
2022-12-11T17:46:28.306Z,0.05
2022-12-11T17:49:50.192Z,0.05
2022-12-11T17:53:15.199Z,0.06
2022-12-11T17:56:37.568Z,0.07
2022-12-11T17:59:59.667Z,0.06
2022-12-11T18:03:21.898Z,0.01
2022-12-11T18:06:43.937Z,0.08
2022-12-11T18:10:07.855Z,0.07
2022-12-11T18:13:29.631Z,0.07
2022-12-11T18:16:52.619Z,0.06
2022-12-11T18:20:16.115Z,0.11
2022-12-11T18:23:37.802Z,0.15
2022-12-11T18:27:01.158Z,0.14
2022-12-11T18:30:24.130Z,0.09
2022-12-11T18:33:47.022Z,0.03
2022-12-11T18:37:09.071Z,0.00
2022-12-11T18:40:31.322Z,-0.06
2022-12-11T18:43:55.033Z,0.02
2022-12-11T18:47:17.330Z,0.02
2022-12-11T18:50:39.079Z,0.09
2022-12-11T18:54:01.043Z,0.12
2022-12-11T18:57:22.942Z,0.12
2022-12-11T19:00:46.731Z,0.14
2022-12-11T19:04:10.960Z,0.18
2022-12-11T19:07:32.892Z,0.18
2022-12-11T19:10:54.708Z,0.23
2022-12-11T19:14:16.702Z,0.27
2022-12-11T19:17:39.602Z,0.29
2022-12-11T19:21:08.559Z,0.33
2022-12-11T19:25:03.151Z,0.33
2022-12-11T19:28:25.727Z,0.34
2022-12-11T19:31:47.955Z,0.36
2022-12-11T19:35:15.107Z,0.38
2022-12-11T19:38:37.234Z,0.39
2022-12-11T19:41:59.260Z,0.40
2022-12-11T19:45:21.379Z,0.41
2022-12-11T19:48:43.749Z,0.41
2022-12-11T19:52:06.890Z,0.41
2022-12-11T19:55:28.919Z,0.43
2022-12-11T19:58:50.926Z,0.45
2022-12-11T20:02:12.882Z,0.46
2022-12-11T20:05:34.878Z,0.47
2022-12-11T20:08:57.993Z,0.52
2022-12-11T20:12:20.074Z,0.52
2022-12-11T20:15:42.129Z,0.53
2022-12-11T20:19:05.086Z,0.53
2022-12-11T20:22:26.827Z,0.55
2022-12-11T20:25:53.399Z,0.54
2022-12-11T20:29:19.250Z,0.54
2022-12-11T20:32:41.372Z,0.55
2022-12-11T20:36:03.244Z,0.54
2022-12-11T20:39:26.612Z,0.56
2022-12-11T20:42:49.641Z,0.57
2022-12-11T20:46:14.735Z,0.59
2022-12-11T20:49:37.084Z,0.60
2022-12-11T20:52:58.782Z,0.60
2022-12-11T20:56:21.024Z,0.59
2022-12-11T20:59:44.381Z,0.55
2022-12-11T21:03:06.489Z,0.53
2022-12-11T21:06:31.763Z,0.54
2022-12-11T21:09:53.590Z,0.52
2022-12-11T21:13:16.684Z,0.52
2022-12-11T21:16:40.088Z,0.49
2022-12-11T21:20:01.924Z,0.43
2022-12-11T21:23:23.589Z,0.39
2022-12-11T21:26:46.717Z,0.33
2022-12-11T21:30:09.174Z,0.29
2022-12-11T21:33:32.458Z,0.28
2022-12-11T21:36:56.913Z,0.26
2022-12-11T21:40:19.130Z,0.22
2022-12-11T21:44:00.471Z,0.27
2022-12-11T21:47:24.634Z,0.34
2022-12-11T21:50:47.964Z,0.37
2022-12-11T21:54:14.246Z,0.41
2022-12-11T21:57:35.944Z,0.46
2022-12-11T22:00:57.699Z,0.51
2022-12-11T22:04:19.526Z,0.48
2022-12-11T22:07:43.021Z,0.51
2022-12-11T22:11:05.973Z,0.54
2022-12-11T22:14:28.262Z,0.58
2022-12-11T22:17:49.799Z,0.60
2022-12-11T22:21:11.897Z,0.61
2022-12-11T22:24:34.957Z,0.58
2022-12-11T22:27:56.820Z,0.56
2022-12-11T22:31:21.317Z,0.44
2022-12-11T22:34:42.922Z,0.47
2022-12-11T22:38:05.346Z,0.49
2022-12-11T22:41:29.999Z,0.51
2022-12-11T22:44:51.953Z,0.45
2022-12-11T22:48:14.306Z,0.31
2022-12-11T22:51:36.635Z,0.32
2022-12-11T22:54:58.374Z,0.37
2022-12-11T22:58:22.117Z,0.30
2022-12-11T23:01:44.074Z,0.28
2022-12-11T23:05:06.529Z,0.21
2022-12-11T23:08:28.325Z,0.27
2022-12-11T23:11:50.394Z,0.33
2022-12-11T23:15:14.136Z,0.33
2022-12-11T23:18:35.943Z,0.31
2022-12-11T23:21:57.873Z,0.35
2022-12-11T23:25:20.583Z,0.38
2022-12-11T23:28:42.964Z,0.41
2022-12-11T23:32:06.641Z,0.37
2022-12-11T23:35:28.311Z,0.38
2022-12-11T23:38:54.498Z,0.40
2022-12-11T23:42:16.973Z,0.38
2022-12-11T23:45:38.365Z,0.36
2022-12-11T23:49:01.391Z,0.30
2022-12-11T23:52:23.946Z,0.33
2022-12-11T23:55:46.743Z,0.36
2022-12-11T23:59:08.252Z,0.27
